Time;durP1;ratioP1;P1;durP2;ratioP2;P2;SDS_P1;SDS_P2;PMS_P1;PMS_P2;Temp;Humidity;BMP_temperature;BMP_pressure;BME280_temperature;BME280_humidity;BME280_pressure;Samples;Min_cycle;Max_cycle;Signal;HPM_P1;HPM_P2
2023/09/07 00:01:55;;;;;;;1.50;1.00;;;19.90;98.20;;;;;;4935608;28;20509;-81
2023/09/07 00:04:23;;;;;;;1.50;1.00;;;19.90;98.20;;;;;;4949814;29;20501;-82
2023/09/07 00:06:50;;;;;;;1.50;0.90;;;19.80;98.20;;;;;;4943692;28;20479;-82
2023/09/07 00:09:18;;;;;;;1.43;0.90;;;19.80;98.20;;;;;;4955543;28;20750;-83
2023/09/07 00:11:45;;;;;;;1.50;0.90;;;19.80;98.20;;;;;;4939450;28;21636;-82
2023/09/07 00:14:12;;;;;;;1.50;0.90;;;19.80;98.20;;;;;;4947881;29;20475;-82
2023/09/07 00:16:38;;;;;;;1.47;0.90;;;19.80;98.20;;;;;;4945420;28;20512;-81
2023/09/07 00:19:06;;;;;;;1.47;0.90;;;19.70;98.20;;;;;;4957148;28;20735;-83
2023/09/07 00:21:34;;;;;;;1.40;0.90;;;19.70;98.20;;;;;;4943767;28;20486;-81
2023/09/07 00:24:05;;;;;;;1.40;0.90;;;19.70;98.20;;;;;;4958603;28;20501;-82
2023/09/07 00:26:31;;;;;;;1.40;0.90;;;19.60;98.20;;;;;;4942235;28;20481;-81
2023/09/07 00:28:58;;;;;;;1.50;1.00;;;19.60;98.20;;;;;;4958199;28;20901;-81
2023/09/07 00:31:25;;;;;;;1.50;0.90;;;19.60;98.20;;;;;;4936738;28;20554;-81
2023/09/07 00:33:52;;;;;;;1.50;1.00;;;19.60;98.20;;;;;;4943744;29;20477;-82
2023/09/07 00:36:19;;;;;;;1.50;1.00;;;19.50;98.20;;;;;;4937740;28;20489;-81
2023/09/07 00:38:47;;;;;;;1.50;0.93;;;19.50;98.20;;;;;;4943008;28;20490;-80
2023/09/07 00:41:14;;;;;;;1.50;0.90;;;19.50;98.20;;;;;;4934289;28;20477;-81
2023/09/07 00:43:41;;;;;;;1.50;0.90;;;19.40;98.20;;;;;;4959608;28;20490;-80
2023/09/07 00:46:08;;;;;;;1.50;1.00;;;19.40;98.20;;;;;;4939892;28;20504;-81
2023/09/07 00:48:36;;;;;;;1.40;0.90;;;19.40;98.20;;;;;;4946283;29;21163;-82
2023/09/07 00:51:03;;;;;;;1.47;0.90;;;19.40;98.20;;;;;;4940570;28;20459;-82
2023/09/07 00:53:30;;;;;;;1.50;1.20;;;19.30;98.20;;;;;;4955775;29;20489;-82
2023/09/07 00:55:59;;;;;;;1.50;0.90;;;19.30;98.20;;;;;;4948601;28;20482;-83
2023/09/07 00:58:26;;;;;;;1.50;1.00;;;19.30;98.20;;;;;;5017869;23;20509;-79
2023/09/07 01:00:53;;;;;;;1.40;0.90;;;19.20;98.20;;;;;;4994407;28;20462;-80
2023/09/07 01:03:20;;;;;;;1.50;0.90;;;19.20;98.20;;;;;;5011619;28;20508;-81
2023/09/07 01:05:56;;;;;;;1.43;0.90;;;19.20;98.20;;;;;;4986607;28;20491;-80
2023/09/07 01:08:27;;;;;;;1.50;0.90;;;19.20;98.20;;;;;;4994847;28;20500;-81
2023/09/07 01:10:54;;;;;;;1.50;0.90;;;19.10;98.20;;;;;;4967354;28;20466;-80
2023/09/07 01:13:22;;;;;;;1.43;0.90;;;19.10;98.20;;;;;;4986859;28;20473;-81
2023/09/07 01:15:49;;;;;;;1.47;0.90;;;19.10;98.20;;;;;;4960639;28;20521;-81
2023/09/07 01:18:17;;;;;;;1.50;0.90;;;19.10;98.20;;;;;;4986841;28;20930;-81
2023/09/07 01:20:46;;;;;;;1.50;0.90;;;19.00;98.20;;;;;;4968255;28;20550;-80
2023/09/07 01:23:14;;;;;;;1.50;1.00;;;19.00;98.20;;;;;;4963852;28;20475;-81
2023/09/07 01:25:43;;;;;;;1.50;0.90;;;19.00;98.20;;;;;;4976311;28;20480;-81
2023/09/07 01:28:10;;;;;;;1.50;0.97;;;19.00;98.20;;;;;;4982743;28;20477;-80
2023/09/07 01:30:38;;;;;;;1.50;0.90;;;18.90;98.20;;;;;;4968275;28;20463;-81
2023/09/07 01:33:05;;;;;;;1.50;1.00;;;18.90;98.20;;;;;;4984319;28;20488;-81
2023/09/07 01:35:34;;;;;;;1.50;1.00;;;18.90;98.20;;;;;;4972079;28;20477;-81
2023/09/07 01:38:01;;;;;;;1.50;1.00;;;18.90;98.20;;;;;;4982278;28;20512;-81
2023/09/07 01:40:29;;;;;;;1.43;0.90;;;18.80;98.20;;;;;;4976453;28;20617;-81
2023/09/07 01:42:56;;;;;;;1.50;1.00;;;18.80;98.20;;;;;;4976195;28;20507;-81
2023/09/07 01:45:23;;;;;;;1.50;0.90;;;18.80;98.20;;;;;;4964964;28;20486;-80
2023/09/07 01:47:51;;;;;;;1.50;1.00;;;18.80;98.20;;;;;;4981856;28;20496;-80
2023/09/07 01:50:18;;;;;;;1.40;0.90;;;18.70;98.20;;;;;;4969670;28;20474;-80
2023/09/07 01:52:48;;;;;;;1.40;0.90;;;18.70;98.20;;;;;;4985380;28;20480;-80
2023/09/07 01:55:15;;;;;;;1.47;0.90;;;18.70;98.20;;;;;;4978898;28;20470;-80
2023/09/07 01:57:43;;;;;;;1.50;0.93;;;18.70;98.20;;;;;;4980950;28;20508;-80
2023/09/07 02:00:12;;;;;;;1.50;1.00;;;18.70;98.20;;;;;;4969511;28;20494;-81
2023/09/07 02:02:38;;;;;;;1.50;1.00;;;18.60;98.20;;;;;;4983598;28;20567;-80
2023/09/07 02:05:06;;;;;;;1.43;0.90;;;18.60;98.20;;;;;;4976579;28;20501;-81
2023/09/07 02:07:33;;;;;;;1.50;0.90;;;18.60;98.20;;;;;;4982928;28;21029;-80
2023/09/07 02:09:59;;;;;;;1.50;0.90;;;18.60;98.20;;;;;;4982304;28;20488;-81
2023/09/07 02:12:26;;;;;;;1.50;0.93;;;18.50;98.20;;;;;;4983456;28;20523;-81
2023/09/07 02:14:54;;;;;;;1.50;1.00;;;18.50;98.20;;;;;;4976526;28;20459;-81
2023/09/07 02:17:21;;;;;;;1.50;0.90;;;18.50;98.20;;;;;;4980269;28;20556;-81
2023/09/07 02:19:48;;;;;;;1.40;0.90;;;18.50;98.20;;;;;;4980919;28;20525;-81
2023/09/07 02:22:15;;;;;;;1.50;1.00;;;18.40;98.20;;;;;;4973626;28;20473;-81
2023/09/07 02:24:42;;;;;;;1.50;0.90;;;18.40;98.20;;;;;;4975918;28;20483;-80
2023/09/07 02:27:08;;;;;;;1.50;0.90;;;18.40;98.20;;;;;;4981534;28;20572;-81
2023/09/07 02:29:41;;;;;;;1.50;1.00;;;18.40;98.20;;;;;;4979170;28;20474;-80
2023/09/07 02:32:10;;;;;;;1.50;1.00;;;18.40;98.20;;;;;;4974854;28;20565;-80
2023/09/07 02:34:37;;;;;;;1.50;1.00;;;18.40;98.20;;;;;;4975833;28;20463;-80
2023/09/07 02:37:18;;;;;;;1.50;0.90;;;18.30;98.20;;;;;;4980740;28;20567;-80
2023/09/07 02:39:45;;;;;;;1.50;0.90;;;18.30;98.20;;;;;;4978101;28;20471;-81
2023/09/07 02:42:12;;;;;;;1.40;0.90;;;18.30;98.20;;;;;;4976806;28;20493;-81
2023/09/07 02:44:39;;;;;;;1.50;0.90;;;18.30;98.20;;;;;;4970638;28;20492;-81
2023/09/07 02:47:06;;;;;;;1.50;0.93;;;18.30;98.20;;;;;;4978095;28;20481;-80
2023/09/07 02:49:34;;;;;;;1.47;1.00;;;18.30;98.20;;;;;;4988379;28;20530;-81
2023/09/07 02:52:01;;;;;;;1.50;1.00;;;18.30;98.20;;;;;;4975540;28;20536;-81
2023/09/07 02:54:29;;;;;;;1.47;0.90;;;18.20;98.20;;;;;;4984338;28;21050;-81
2023/09/07 02:56:56;;;;;;;1.40;0.90;;;18.20;98.20;;;;;;4979899;28;20501;-81
2023/09/07 02:59:22;;;;;;;1.50;1.00;;;18.20;98.20;;;;;;4983147;28;20471;-80
2023/09/07 03:01:49;;;;;;;1.50;0.90;;;18.20;98.20;;;;;;4978445;28;20544;-80
2023/09/07 03:04:16;;;;;;;1.50;0.90;;;18.10;98.20;;;;;;4988345;28;20466;-80
2023/09/07 03:06:44;;;;;;;1.50;0.90;;;18.10;98.20;;;;;;4969175;28;20495;-80
2023/09/07 03:09:11;;;;;;;1.50;0.93;;;18.10;98.20;;;;;;4975058;28;20472;-80
2023/09/07 03:11:37;;;;;;;1.50;1.00;;;18.10;98.20;;;;;;4974821;28;20509;-80
2023/09/07 03:14:04;;;;;;;1.50;1.00;;;18.00;98.20;;;;;;4992652;28;20470;-81
2023/09/07 03:16:31;;;;;;;1.50;1.00;;;18.00;98.20;;;;;;4982192;28;20232;-81
2023/09/07 03:18:57;;;;;;;1.50;0.90;;;18.00;98.20;;;;;;4985876;28;20509;-80
2023/09/07 03:21:29;;;;;;;1.50;1.00;;;18.00;98.20;;;;;;4977564;28;20529;-79
2023/09/07 03:23:57;;;;;;;1.50;0.90;;;17.90;98.20;;;;;;4995101;28;20529;-80
2023/09/07 03:26:24;;;;;;;1.50;0.90;;;17.90;98.20;;;;;;4976678;28;20481;-80
2023/09/07 03:28:51;;;;;;;1.50;0.90;;;17.90;98.20;;;;;;4989047;28;20522;-80
2023/09/07 03:31:18;;;;;;;1.47;0.90;;;17.80;98.20;;;;;;4968416;28;20488;-80
2023/09/07 03:33:45;;;;;;;1.50;0.97;;;17.80;98.20;;;;;;4988781;28;20474;-80
2023/09/07 03:36:44;;;;;;;1.50;0.90;;;17.80;98.20;;;;;;4973399;28;20477;-80
2023/09/07 03:39:12;;;;;;;1.50;1.00;;;17.80;98.20;;;;;;4984232;28;20475;-81
2023/09/07 03:41:39;;;;;;;1.50;1.00;;;17.80;98.20;;;;;;4978347;28;21015;-81
2023/09/07 03:44:06;;;;;;;1.50;1.00;;;17.80;98.20;;;;;;4986946;28;22160;-80
2023/09/07 03:46:33;;;;;;;1.50;1.00;;;17.80;98.20;;;;;;4976173;28;20500;-80
2023/09/07 03:49:00;;;;;;;1.50;1.00;;;17.80;98.20;;;;;;4992631;28;20486;-80
2023/09/07 03:51:27;;;;;;;1.50;1.00;;;17.80;98.20;;;;;;4978144;28;20537;-80
2023/09/07 03:53:54;;;;;;;1.43;0.90;;;17.80;98.20;;;;;;4990395;28;20525;-80
2023/09/07 03:56:22;;;;;;;1.50;1.00;;;17.80;98.20;;;;;;4978265;28;20544;-81
2023/09/07 03:58:49;;;;;;;1.50;1.00;;;17.70;98.20;;;;;;4992093;28;20549;-80
2023/09/07 04:01:17;;;;;;;1.50;1.00;;;17.70;98.20;;;;;;4975504;28;20489;-80
2023/09/07 04:03:43;;;;;;;1.50;1.00;;;17.70;98.20;;;;;;4990556;28;20474;-80
2023/09/07 04:06:10;;;;;;;1.50;0.97;;;17.70;98.20;;;;;;4978093;28;20489;-80
2023/09/07 04:08:37;;;;;;;1.50;0.90;;;17.70;98.20;;;;;;4993061;28;20502;-80
2023/09/07 04:11:05;;;;;;;1.50;1.00;;;17.60;98.20;;;;;;4974448;28;20486;-80
2023/09/07 04:13:34;;;;;;;1.47;1.00;;;17.70;98.20;;;;;;4994648;28;20549;-79
2023/09/07 04:16:02;;;;;;;1.50;1.10;;;17.60;98.20;;;;;;4975624;28;20493;-80
2023/09/07 04:18:29;;;;;;;1.50;0.90;;;17.60;98.20;;;;;;4993975;28;20489;-80
2023/09/07 04:21:05;;;;;;;1.50;0.90;;;17.60;98.20;;;;;;4977173;28;20466;-80
2023/09/07 04:23:34;;;;;;;1.50;1.00;;;17.60;98.20;;;;;;4996915;28;20525;-80
2023/09/07 04:26:11;;;;;;;1.50;0.90;;;17.60;98.20;;;;;;4979375;28;20482;-80
2023/09/07 04:28:39;;;;;;;1.50;0.90;;;17.60;98.20;;;;;;4992279;28;20482;-80
2023/09/07 04:31:09;;;;;;;1.50;0.90;;;17.50;98.20;;;;;;4977050;28;20476;-80
2023/09/07 04:33:37;;;;;;;1.50;0.90;;;17.50;98.20;;;;;;4991218;28;20518;-80
2023/09/07 04:36:19;;;;;;;1.50;0.90;;;17.50;98.20;;;;;;4971935;28;20518;-80
2023/09/07 04:38:50;;;;;;;1.50;1.00;;;17.40;98.20;;;;;;4990456;28;20486;-80
2023/09/07 04:41:16;;;;;;;1.50;0.90;;;17.40;98.20;;;;;;4973274;28;20491;-80
2023/09/07 04:43:45;;;;;;;1.50;1.00;;;17.40;98.20;;;;;;4992505;28;20462;-80
2023/09/07 04:46:12;;;;;;;1.50;0.90;;;17.40;98.20;;;;;;4974710;28;20560;-80
2023/09/07 04:48:40;;;;;;;1.50;1.00;;;17.40;98.20;;;;;;4994516;28;20509;-80
2023/09/07 04:51:08;;;;;;;1.50;1.00;;;17.40;98.20;;;;;;4972269;28;20749;-80
2023/09/07 04:53:36;;;;;;;1.50;1.00;;;17.40;98.20;;;;;;4992491;28;20561;-81
2023/09/07 04:56:04;;;;;;;1.50;1.00;;;17.40;98.20;;;;;;4974591;28;20458;-80
2023/09/07 04:58:31;;;;;;;1.50;0.90;;;17.40;98.20;;;;;;4997219;28;20550;-80
2023/09/07 05:01:04;;;;;;;1.50;1.00;;;17.40;98.20;;;;;;4973587;28;20478;-80
2023/09/07 05:03:31;;;;;;;1.47;0.90;;;17.40;98.20;;;;;;4991880;28;20527;-81
2023/09/07 05:06:03;;;;;;;1.50;1.10;;;17.30;98.20;;;;;;4971309;28;20545;-81
2023/09/07 05:08:30;;;;;;;1.47;0.90;;;17.30;98.20;;;;;;4992212;28;20486;-81
2023/09/07 05:10:58;;;;;;;1.47;0.90;;;17.30;98.20;;;;;;4975352;28;20564;-82
2023/09/07 05:13:26;;;;;;;1.50;1.00;;;17.30;98.20;;;;;;4991752;28;20489;-84
2023/09/07 05:15:54;;;;;;;1.50;0.90;;;17.30;98.20;;;;;;4978205;28;20466;-81
2023/09/07 05:18:23;;;;;;;1.50;1.00;;;17.30;98.20;;;;;;4998956;28;20497;-81
2023/09/07 05:21:13;;;;;;;1.50;1.00;;;17.30;98.20;;;;;;4977050;28;20463;-79
2023/09/07 05:23:48;;;;;;;1.47;0.90;;;17.20;98.20;;;;;;4993593;28;20694;-81
2023/09/07 05:26:15;;;;;;;1.50;0.90;;;17.20;98.20;;;;;;4975495;28;20547;-82
2023/09/07 05:28:42;;;;;;;1.50;1.00;;;17.20;98.20;;;;;;4995705;28;20521;-81
2023/09/07 05:31:09;;;;;;;1.50;1.00;;;17.20;98.20;;;;;;4973185;28;20545;-80
2023/09/07 05:33:37;;;;;;;1.50;1.00;;;17.20;98.20;;;;;;4988966;28;20477;-81
2023/09/07 05:36:04;;;;;;;1.60;1.20;;;17.20;98.20;;;;;;4969099;28;20469;-81
2023/09/07 05:38:31;;;;;;;1.50;1.00;;;17.20;98.20;;;;;;4976743;28;20513;-81
2023/09/07 05:40:58;;;;;;;1.50;1.00;;;17.30;98.20;;;;;;4973066;28;20474;-81
2023/09/07 05:43:25;;;;;;;1.50;0.90;;;17.30;98.20;;;;;;4974719;28;20494;-80
2023/09/07 05:45:52;;;;;;;1.50;1.00;;;17.30;98.20;;;;;;4970813;28;20485;-80
2023/09/07 05:48:19;;;;;;;1.70;1.50;;;17.30;98.20;;;;;;4996334;28;20750;-80
2023/09/07 05:50:51;;;;;;;1.47;0.93;;;17.30;98.20;;;;;;4980632;28;20546;-80
2023/09/07 05:53:20;;;;;;;1.50;1.10;;;17.40;98.20;;;;;;4969968;28;20564;-80
2023/09/07 05:55:47;;;;;;;1.50;0.90;;;17.40;98.20;;;;;;4974568;28;20463;-79
2023/09/07 05:58:14;;;;;;;1.47;0.90;;;17.60;98.20;;;;;;4995189;28;20562;-80
2023/09/07 06:00:41;;;;;;;1.50;0.90;;;17.70;98.20;;;;;;4983425;28;20470;-79
2023/09/07 06:03:09;;;;;;;1.50;1.00;;;17.80;98.20;;;;;;4973347;28;20676;-81
2023/09/07 06:05:36;;;;;;;1.43;0.90;;;17.90;98.20;;;;;;4984529;28;20485;-80
2023/09/07 06:08:07;;;;;;;1.50;0.90;;;18.00;98.20;;;;;;4983850;28;20521;-81
2023/09/07 06:10:34;;;;;;;1.50;1.00;;;18.20;98.20;;;;;;4987676;28;20522;-80
2023/09/07 06:13:01;;;;;;;1.50;0.90;;;18.30;98.20;;;;;;4986087;28;20571;-80
2023/09/07 06:15:30;;;;;;;1.40;0.90;;;18.50;98.20;;;;;;4983875;28;20491;-80
2023/09/07 06:17:57;;;;;;;1.50;0.90;;;18.70;98.20;;;;;;4980614;28;20517;-80
2023/09/07 06:20:24;;;;;;;1.50;0.90;;;18.80;98.20;;;;;;4984540;28;20474;-80
2023/09/07 06:22:54;;;;;;;1.50;1.00;;;19.00;98.20;;;;;;4985625;28;20477;-81
2023/09/07 06:25:23;;;;;;;1.40;0.90;;;19.10;98.20;;;;;;4976045;28;20474;-81
2023/09/07 06:27:50;;;;;;;1.50;0.90;;;19.30;98.20;;;;;;4975069;28;20556;-81
2023/09/07 06:30:17;;;;;;;1.50;1.00;;;19.50;98.20;;;;;;4984729;28;20686;-79
2023/09/07 06:32:48;;;;;;;1.50;0.90;;;19.60;98.20;;;;;;4990078;28;20535;-80
2023/09/07 06:35:45;;;;;;;1.50;1.00;;;19.80;98.20;;;;;;4980562;28;20484;-79
2023/09/07 06:38:12;;;;;;;1.50;0.90;;;20.00;98.20;;;;;;4969861;28;21129;-80
2023/09/07 06:40:40;;;;;;;1.50;0.90;;;20.30;98.20;;;;;;4982855;28;20466;-81
2023/09/07 06:43:07;;;;;;;1.50;1.00;;;20.50;98.20;;;;;;4984631;28;20482;-81
2023/09/07 06:45:35;;;;;;;1.50;0.90;;;20.60;98.20;;;;;;4976905;28;20463;-81
2023/09/07 06:48:03;;;;;;;1.50;0.90;;;20.80;98.20;;;;;;4978296;28;20494;-81
2023/09/07 06:50:33;;;;;;;1.50;0.90;;;20.90;98.20;;;;;;4977594;28;20485;-81
2023/09/07 06:53:00;;;;;;;1.50;0.90;;;21.10;98.20;;;;;;4980789;28;20488;-81
2023/09/07 06:55:26;;;;;;;1.50;1.00;;;21.30;98.20;;;;;;4976128;28;20479;-81
2023/09/07 06:57:56;;;;;;;1.47;0.90;;;21.50;98.20;;;;;;4981888;28;20489;-80
2023/09/07 07:00:23;;;;;;;1.47;0.90;;;21.70;98.20;;;;;;4975631;28;21081;-81
2023/09/07 07:02:50;;;;;;;1.50;0.90;;;21.90;98.20;;;;;;4976378;28;20810;-81
2023/09/07 07:05:17;;;;;;;1.50;0.97;;;22.00;98.20;;;;;;4977937;28;20498;-80
2023/09/07 07:07:44;;;;;;;1.50;0.90;;;22.20;98.20;;;;;;4978337;28;20553;-80
2023/09/07 07:10:11;;;;;;;1.50;0.90;;;22.40;98.20;;;;;;4979030;28;20526;-80
2023/09/07 07:12:38;;;;;;;1.50;1.00;;;22.50;98.20;;;;;;4981258;28;20481;-81
2023/09/07 07:15:28;;;;;;;1.50;0.90;;;22.70;98.20;;;;;;4978141;28;20532;-81
2023/09/07 07:17:54;;;;;;;1.50;0.90;;;22.90;98.20;;;;;;4980507;28;20509;-80
2023/09/07 07:23:14;;;;;;;1.50;0.90;;;23.10;98.20;;;;;;5087917;23;20576;-82
2023/09/07 07:25:41;;;;;;;1.50;0.90;;;23.30;98.20;;;;;;4949700;28;20466;-83
2023/09/07 07:28:08;;;;;;;1.50;0.90;;;23.40;97.60;;;;;;4956426;28;20491;-84
2023/09/07 07:30:41;;;;;;;1.47;0.90;;;23.50;95.80;;;;;;4933727;29;20472;-84
2023/09/07 07:33:08;;;;;;;1.50;0.90;;;23.60;97.60;;;;;;4941335;28;20853;-85
2023/09/07 07:35:38;;;;;;;1.50;0.80;;;23.70;96.80;;;;;;4935425;29;20464;-84
2023/09/07 07:38:06;;;;;;;1.50;0.90;;;23.80;95.60;;;;;;4962112;23;20486;-80
2023/09/07 07:40:32;;;;;;;1.43;0.80;;;23.80;94.90;;;;;;4974497;28;20473;-83
2023/09/07 07:43:23;;;;;;;1.50;0.90;;;23.90;95.40;;;;;;4964391;28;20475;-83
2023/09/07 07:45:53;;;;;;;1.47;0.80;;;24.00;94.70;;;;;;4965923;28;20593;-83
2023/09/07 07:48:20;;;;;;;1.50;1.10;;;24.10;95.00;;;;;;4985419;28;20490;-82
2023/09/07 07:50:47;;;;;;;1.50;0.90;;;24.20;94.70;;;;;;4966630;28;20542;-83
2023/09/07 07:53:14;;;;;;;1.50;0.87;;;24.30;94.00;;;;;;4972446;28;20485;-82
2023/09/07 07:55:48;;;;;;;1.47;0.87;;;24.30;94.90;;;;;;4974137;28;20664;-84
2023/09/07 07:58:15;;;;;;;1.47;0.90;;;24.30;93.70;;;;;;4962507;28;20585;-82
2023/09/07 08:00:44;;;;;;;1.47;0.80;;;24.30;94.00;;;;;;4966146;28;20462;-83
2023/09/07 08:03:26;;;;;;;1.50;0.80;;;24.40;94.70;;;;;;4978974;28;20606;-82
2023/09/07 08:05:53;;;;;;;1.47;0.80;;;24.50;94.20;;;;;;4960718;28;20470;-82
2023/09/07 08:08:20;;;;;;;1.50;0.90;;;24.60;94.50;;;;;;4968752;28;20540;-81
2023/09/07 08:10:47;;;;;;;1.50;0.80;;;24.70;93.50;;;;;;4966053;28;20509;-82
2023/09/07 08:13:14;;;;;;;1.47;0.80;;;24.90;93.60;;;;;;4964413;28;20479;-80
2023/09/07 08:15:41;;;;;;;1.50;0.80;;;25.10;93.40;;;;;;4968504;28;20465;-82
2023/09/07 08:18:08;;;;;;;1.50;0.90;;;25.20;92.80;;;;;;4976366;28;20475;-82
2023/09/07 08:20:38;;;;;;;1.50;0.80;;;25.40;92.70;;;;;;4968856;28;20474;-82
2023/09/07 08:23:47;;;;;;;1.50;0.90;;;25.60;92.00;;;;;;4961047;28;20478;-80
2023/09/07 08:26:14;;;;;;;1.47;0.90;;;25.80;92.10;;;;;;4958004;28;20486;-82
2023/09/07 08:28:41;;;;;;;1.43;0.80;;;25.90;91.60;;;;;;4972420;28;20488;-82
2023/09/07 08:31:10;;;;;;;1.50;0.90;;;26.10;90.50;;;;;;4957778;28;20562;-83
2023/09/07 08:36:22;;;;;;;1.50;0.90;;;26.30;89.90;;;;;;4923460;29;20536;-81
2023/09/07 08:38:49;;;;;;;1.50;0.90;;;26.40;89.20;;;;;;4961351;28;20503;-81
2023/09/07 08:41:37;;;;;;;1.50;0.83;;;26.60;88.80;;;;;;4959118;28;20808;-81
2023/09/07 08:44:08;;;;;;;1.47;0.80;;;26.70;87.00;;;;;;4970174;28;20647;-80
2023/09/07 08:46:37;;;;;;;1.47;0.80;;;26.70;87.00;;;;;;4953646;28;20518;-81
2023/09/07 08:49:05;;;;;;;1.60;1.10;;;26.70;86.40;;;;;;4970369;28;20735;-81
2023/09/07 08:51:34;;;;;;;1.50;0.87;;;26.70;86.40;;;;;;4954662;28;20479;-79
2023/09/07 08:54:03;;;;;;;1.50;0.80;;;26.80;87.10;;;;;;4963303;28;20871;-81
2023/09/07 08:56:30;;;;;;;1.47;0.80;;;26.80;85.60;;;;;;4952823;28;20510;-79
2023/09/07 08:58:57;;;;;;;2.00;1.80;;;26.90;86.80;;;;;;4966601;28;20486;-80
2023/09/07 09:01:24;;;;;;;1.50;0.90;;;27.00;85.50;;;;;;4968362;28;20483;-81
2023/09/07 09:03:52;;;;;;;1.60;1.33;;;27.10;86.70;;;;;;4986217;28;20467;-81
2023/09/07 09:06:21;;;;;;;1.43;0.80;;;27.20;86.20;;;;;;4966453;28;20532;-80
2023/09/07 09:08:52;;;;;;;3.43;3.23;;;27.40;86.90;;;;;;4971035;28;20486;-81
2023/09/07 09:11:20;;;;;;;1.50;1.00;;;27.60;85.60;;;;;;4961024;28;20481;-81
2023/09/07 09:13:48;;;;;;;1.50;0.80;;;27.70;85.00;;;;;;4968525;28;20590;-80
2023/09/07 09:16:15;;;;;;;1.80;1.00;;;27.70;85.00;;;;;;4963596;28;20516;-80
2023/09/07 09:18:49;;;;;;;1.40;0.80;;;27.80;85.50;;;;;;4974916;28;20493;-82
2023/09/07 09:21:28;;;;;;;1.50;0.80;;;28.00;85.00;;;;;;4963196;28;21095;-84
2023/09/07 09:27:16;;;;;;;1.47;0.80;;;28.20;84.70;;;;;;4958784;28;20489;-82
2023/09/07 09:29:44;;;;;;;1.40;0.87;;;28.30;82.90;;;;;;4968209;28;21079;-83
2023/09/07 09:32:14;;;;;;;1.50;0.80;;;28.40;82.70;;;;;;4961115;28;20477;-83
2023/09/07 09:34:44;;;;;;;1.47;0.80;;;28.40;83.40;;;;;;4971636;28;20953;-83
2023/09/07 09:37:14;;;;;;;1.50;0.83;;;28.40;83.50;;;;;;4960584;28;20626;-82
2023/09/07 09:39:43;;;;;;;1.50;0.80;;;28.50;83.40;;;;;;4973963;28;20493;-83
2023/09/07 09:42:11;;;;;;;1.50;0.90;;;28.70;82.80;;;;;;4975249;28;20917;-82
2023/09/07 09:44:39;;;;;;;1.50;1.00;;;28.70;82.10;;;;;;4977491;28;20496;-82
2023/09/07 09:47:09;;;;;;;1.60;1.40;;;28.80;82.90;;;;;;4965818;28;20484;-82
2023/09/07 09:49:36;;;;;;;1.47;0.80;;;28.90;82.40;;;;;;4972595;28;20499;-82
2023/09/07 09:52:05;;;;;;;1.60;1.27;;;29.20;82.70;;;;;;4961171;28;20975;-81
2023/09/07 09:54:34;;;;;;;1.47;0.80;;;29.30;81.50;;;;;;4972564;28;20918;-82
2023/09/07 09:57:06;;;;;;;1.50;0.90;;;29.50;81.30;;;;;;4973110;28;20729;-83
2023/09/07 09:59:33;;;;;;;1.83;1.20;;;29.60;81.60;;;;;;4976249;28;20991;-82
2023/09/07 10:02:01;;;;;;;1.47;0.80;;;29.70;80.00;;;;;;4960756;28;20485;-82
2023/09/07 10:04:29;;;;;;;1.50;0.80;;;29.70;80.70;;;;;;4967119;28;20469;-82
2023/09/07 10:06:59;;;;;;;1.50;0.80;;;29.80;80.90;;;;;;4964885;28;20479;-82
2023/09/07 10:09:30;;;;;;;1.50;0.80;;;30.00;81.90;;;;;;4953475;28;20485;-82
2023/09/07 10:11:59;;;;;;;1.50;1.00;;;30.20;80.60;;;;;;4940920;28;20480;-80
2023/09/07 10:14:38;;;;;;;1.47;0.80;;;30.30;80.00;;;;;;4955265;28;20616;-80
2023/09/07 10:17:05;;;;;;;1.70;1.30;;;30.50;80.80;;;;;;4933077;28;20485;-82
2023/09/07 10:19:33;;;;;;;1.50;1.00;;;30.60;78.50;;;;;;4953297;28;20846;-81
2023/09/07 10:22:03;;;;;;;1.50;0.80;;;30.70;78.70;;;;;;4974154;28;21018;-82
2023/09/07 10:24:35;;;;;;;1.60;1.20;;;30.70;78.80;;;;;;4978476;28;20485;-82
2023/09/07 10:27:11;;;;;;;1.43;0.80;;;30.80;78.20;;;;;;4976046;28;20492;-83
2023/09/07 10:29:47;;;;;;;1.50;0.90;;;31.00;78.40;;;;;;4971151;28;20520;-82
2023/09/07 10:32:16;;;;;;;1.43;0.80;;;31.10;77.30;;;;;;4974658;28;20484;-82
2023/09/07 10:34:44;;;;;;;1.50;1.00;;;31.20;77.50;;;;;;4972818;28;20524;-81
2023/09/07 10:37:13;;;;;;;1.40;0.80;;;31.30;78.50;;;;;;4969292;28;20899;-81
2023/09/07 10:39:42;;;;;;;1.47;0.80;;;31.40;76.50;;;;;;4972504;28;21507;-82
2023/09/07 10:42:09;;;;;;;1.40;0.80;;;31.30;76.80;;;;;;4964960;28;20497;-81
2023/09/07 10:44:36;;;;;;;1.47;0.80;;;31.30;75.50;;;;;;4976460;28;20927;-84
2023/09/07 10:47:05;;;;;;;1.47;0.80;;;31.30;75.90;;;;;;4970573;28;20527;-82
2023/09/07 10:49:32;;;;;;;1.50;0.90;;;31.20;76.20;;;;;;4976418;28;20513;-82
2023/09/07 10:51:59;;;;;;;1.53;1.20;;;31.30;76.30;;;;;;4961820;28;20485;-80
2023/09/07 10:54:26;;;;;;;1.47;0.80;;;31.40;77.10;;;;;;4971120;28;20304;-82
2023/09/07 11:00:41;;;;;;;1.50;0.80;;;31.70;76.10;;;;;;4961390;23;20561;-84
2023/09/07 11:03:14;;;;;;;1.47;0.90;;;31.90;75.40;;;;;;4962850;28;20525;-84
2023/09/07 11:10:08;;;;;;;1.50;0.90;;;32.10;76.10;;;;;;5198338;23;20561;-84
2023/09/07 11:12:47;;;;;;;1.43;0.80;;;32.20;76.60;;;;;;4936167;28;20473;-84
2023/09/07 11:18:43;;;;;;;1.43;0.80;;;32.40;74.50;;;;;;4951261;28;20288;-85
2023/09/07 11:33:36;;;;;;;1.47;0.80;;;32.50;72.60;;;;;;4973377;28;20236;-85
2023/09/07 12:01:40;;;;;;;1.50;0.90;;;32.80;72.30;;;;;;5368137;23;20233;-85
2023/09/07 12:04:47;;;;;;;1.40;0.80;;;32.80;73.20;;;;;;4896637;29;20232;-85
2023/09/07 12:07:27;;;;;;;1.40;0.80;;;33.00;72.90;;;;;;4873835;29;20777;-86
2023/09/07 12:22:50;;;;;;;1.83;1.63;;;33.50;70.80;;;;;;4913641;29;20211;-85
2023/09/07 12:32:17;;;;;;;1.60;1.13;;;33.70;70.30;;;;;;4874371;29;20319;-85
2023/09/07 12:38:21;;;;;;;1.40;0.80;;;33.80;70.40;;;;;;4815998;29;20237;-85
2023/09/07 12:44:25;;;;;;;1.47;0.93;;;33.70;69.90;;;;;;4851013;29;20214;-84
2023/09/07 12:47:43;;;;;;;1.43;0.80;;;33.60;70.20;;;;;;4819743;29;20209;-86
2023/09/07 12:50:16;;;;;;;1.40;0.80;;;33.50;69.30;;;;;;4747277;30;20535;-84
2023/09/07 12:52:50;;;;;;;1.43;0.80;;;33.40;70.10;;;;;;4743053;30;20287;-85
2023/09/07 12:55:52;;;;;;;1.40;0.80;;;33.50;69.60;;;;;;4839837;29;20213;-85
2023/09/07 12:58:42;;;;;;;1.40;0.80;;;33.60;69.20;;;;;;4850671;29;20260;-85
2023/09/07 13:04:22;;;;;;;1.50;1.10;;;33.70;67.80;;;;;;4956854;28;20298;-85
2023/09/07 13:07:08;;;;;;;;;;;;;;;;;;;;;
2023/09/07 13:10:25;;;;;;;1.43;0.90;;;33.70;68.60;;;;;;4964344;28;20618;-85
2023/09/07 13:13:28;;;;;;;1.70;1.37;;;33.60;67.10;;;;;;4877217;29;20235;-85
2023/09/07 13:26:13;;;;;;;1.50;1.00;;;33.60;69.00;;;;;;4885752;29;20600;-84
2023/09/07 13:32:18;;;;;;;1.40;0.80;;;33.80;67.80;;;;;;4828345;29;20242;-84
2023/09/07 13:35:22;;;;;;;1.40;0.80;;;33.90;67.50;;;;;;4839883;29;20221;-86
2023/09/07 13:38:35;;;;;;;1.40;0.80;;;34.00;67.80;;;;;;4839227;29;20788;-86
2023/09/07 13:41:46;;;;;;;1.40;0.80;;;34.00;66.20;;;;;;4818836;29;20214;-86
2023/09/07 13:44:25;;;;;;;1.40;0.80;;;33.90;66.20;;;;;;4928035;29;20203;-84
2023/09/07 13:50:32;;;;;;;1.40;0.80;;;33.80;67.50;;;;;;4958218;28;20257;-86
2023/09/07 13:57:08;;;;;;;1.50;1.00;;;33.50;67.00;;;;;;4872609;29;20649;-85
2023/09/07 14:03:17;;;;;;;1.60;1.00;;;33.40;65.10;;;;;;5008443;23;20654;-86
2023/09/07 14:06:24;;;;;;;1.40;0.80;;;33.50;65.70;;;;;;4960312;28;20214;-84
2023/09/07 14:09:38;;;;;;;1.63;1.10;;;33.40;65.60;;;;;;5052697;23;20242;-86
2023/09/07 14:12:55;;;;;;;1.40;0.80;;;33.50;65.10;;;;;;4964434;28;20225;-85
2023/09/07 14:15:56;;;;;;;1.40;0.80;;;33.50;65.10;;;;;;4959229;28;20218;-86
2023/09/07 14:18:32;;;;;;;1.57;0.90;;;33.40;66.50;;;;;;4914805;29;20684;-85
2023/09/07 14:34:09;;;;;;;1.40;0.80;;;33.30;65.80;;;;;;4915822;29;20308;-85
2023/09/07 14:40:48;;;;;;;1.40;0.80;;;33.20;65.90;;;;;;4858712;29;20618;-85
2023/09/07 14:43:18;;;;;;;1.40;0.80;;;33.10;65.90;;;;;;4839693;29;20290;-86
2023/09/07 14:45:57;;;;;;;1.40;0.80;;;33.10;64.20;;;;;;4870799;29;20328;-86
2023/09/07 14:48:26;;;;;;;1.40;0.80;;;33.10;64.10;;;;;;4855277;29;20229;-85
2023/09/07 14:51:20;;;;;;;1.40;0.80;;;33.10;63.80;;;;;;4904283;29;20228;-84
2023/09/07 14:54:02;;;;;;;1.40;0.80;;;33.00;64.10;;;;;;4870269;29;20903;-87
2023/09/07 15:17:09;;;;;;;1.43;0.80;;;32.80;64.30;;;;;;4946990;28;20378;-87
2023/09/07 15:34:16;;;;;;;1.40;0.80;;;32.50;64.50;;;;;;5447306;23;20517;-85
2023/09/07 15:44:22;;;;;;;1.43;0.80;;;32.20;65.20;;;;;;4866702;29;21173;-85
2023/09/07 15:47:26;;;;;;;;;;;;;;;;;;;;;
2023/09/07 15:56:13;;;;;;;3.00;1.53;;;32.00;65.30;;;;;;4933911;28;20466;-85
2023/09/07 16:02:38;;;;;;;1.40;0.80;;;31.90;64.20;;;;;;4928867;28;20576;-84
2023/09/07 16:05:12;;;;;;;1.43;0.90;;;31.90;64.30;;;;;;4863143;29;20573;-85
2023/09/07 16:16:38;;;;;;;1.80;1.40;;;31.40;65.50;;;;;;4910277;28;20473;-85
2023/09/07 16:30:39;;;;;;;1.43;0.80;;;31.00;66.70;;;;;;5481434;23;21057;-84
2023/09/07 16:35:53;;;;;;;1.40;0.80;;;30.90;67.60;;;;;;4928149;29;20467;-87